sensor_id;sensor_type;location;lat;lon;timestamp;P1;durP1;ratioP1;P2;durP2;ratioP2
13741;SDS011;8461;52.356;10.704;2023-01-13T00:01:06;0.53;;;0.27;;
13741;SDS011;8461;52.356;10.704;2023-01-13T00:03:32;1.60;;;0.37;;
13741;SDS011;8461;52.356;10.704;2023-01-13T00:05:58;2.13;;;0.30;;
13741;SDS011;8461;52.356;10.704;2023-01-13T00:08:24;0.30;;;0.10;;
13741;SDS011;8461;52.356;10.704;2023-01-13T00:10:49;1.50;;;0.27;;
13741;SDS011;8461;52.356;10.704;2023-01-13T00:13:15;0.70;;;0.20;;
13741;SDS011;8461;52.356;10.704;2023-01-13T00:15:41;0.57;;;0.10;;
13741;SDS011;8461;52.356;10.704;2023-01-13T00:18:07;0.50;;;0.37;;
13741;SDS011;8461;52.356;10.704;2023-01-13T00:20:32;1.63;;;0.40;;
13741;SDS011;8461;52.356;10.704;2023-01-13T00:22:58;0.97;;;0.37;;
13741;SDS011;8461;52.356;10.704;2023-01-13T00:25:24;1.33;;;0.27;;
13741;SDS011;8461;52.356;10.704;2023-01-13T00:27:49;0.40;;;0.27;;
13741;SDS011;8461;52.356;10.704;2023-01-13T00:30:15;1.13;;;0.50;;
13741;SDS011;8461;52.356;10.704;2023-01-13T00:32:41;0.57;;;0.23;;
13741;SDS011;8461;52.356;10.704;2023-01-13T00:35:06;0.40;;;0.23;;
13741;SDS011;8461;52.356;10.704;2023-01-13T00:37:35;0.87;;;0.40;;
13741;SDS011;8461;52.356;10.704;2023-01-13T00:40:02;0.33;;;0.10;;
13741;SDS011;8461;52.356;10.704;2023-01-13T00:42:28;0.23;;;0.20;;
13741;SDS011;8461;52.356;10.704;2023-01-13T00:45:13;2.57;;;0.40;;
13741;SDS011;8461;52.356;10.704;2023-01-13T00:47:38;0.83;;;0.30;;
13741;SDS011;8461;52.356;10.704;2023-01-13T00:50:04;0.33;;;0.33;;
13741;SDS011;8461;52.356;10.704;2023-01-13T00:52:30;0.93;;;0.70;;
13741;SDS011;8461;52.356;10.704;2023-01-13T00:54:57;1.27;;;0.73;;
13741;SDS011;8461;52.356;10.704;2023-01-13T00:57:22;1.00;;;0.80;;
13741;SDS011;8461;52.356;10.704;2023-01-13T00:59:48;1.13;;;0.60;;
13741;SDS011;8461;52.356;10.704;2023-01-13T01:02:13;1.07;;;0.80;;
13741;SDS011;8461;52.356;10.704;2023-01-13T01:04:39;2.53;;;1.00;;
13741;SDS011;8461;52.356;10.704;2023-01-13T01:07:05;1.23;;;0.70;;
13741;SDS011;8461;52.356;10.704;2023-01-13T01:09:30;1.27;;;0.80;;
13741;SDS011;8461;52.356;10.704;2023-01-13T01:11:58;0.60;;;0.50;;
13741;SDS011;8461;52.356;10.704;2023-01-13T01:14:25;1.10;;;0.50;;
13741;SDS011;8461;52.356;10.704;2023-01-13T01:16:51;1.23;;;0.70;;
13741;SDS011;8461;52.356;10.704;2023-01-13T01:19:17;1.63;;;0.60;;
13741;SDS011;8461;52.356;10.704;2023-01-13T01:21:43;1.40;;;0.90;;
13741;SDS011;8461;52.356;10.704;2023-01-13T01:24:08;1.10;;;0.73;;
13741;SDS011;8461;52.356;10.704;2023-01-13T01:26:35;1.23;;;0.73;;
13741;SDS011;8461;52.356;10.704;2023-01-13T01:29:01;0.33;;;0.30;;
13741;SDS011;8461;52.356;10.704;2023-01-13T01:31:27;1.03;;;0.50;;
13741;SDS011;8461;52.356;10.704;2023-01-13T01:33:58;0.67;;;0.30;;
13741;SDS011;8461;52.356;10.704;2023-01-13T01:36:24;0.40;;;0.40;;
13741;SDS011;8461;52.356;10.704;2023-01-13T01:38:54;1.07;;;0.30;;
13741;SDS011;8461;52.356;10.704;2023-01-13T01:41:24;0.70;;;0.30;;
13741;SDS011;8461;52.356;10.704;2023-01-13T01:49:02;0.63;;;0.43;;
13741;SDS011;8461;52.356;10.704;2023-01-13T01:51:45;0.73;;;0.40;;
13741;SDS011;8461;52.356;10.704;2023-01-13T01:54:13;1.40;;;0.20;;
13741;SDS011;8461;52.356;10.704;2023-01-13T01:56:44;0.63;;;0.30;;
13741;SDS011;8461;52.356;10.704;2023-01-13T01:59:11;2.37;;;0.40;;
13741;SDS011;8461;52.356;10.704;2023-01-13T02:01:37;0.60;;;0.30;;
13741;SDS011;8461;52.356;10.704;2023-01-13T02:04:06;0.40;;;0.30;;
13741;SDS011;8461;52.356;10.704;2023-01-13T02:06:40;0.50;;;0.30;;
13741;SDS011;8461;52.356;10.704;2023-01-13T02:09:07;1.40;;;0.40;;
13741;SDS011;8461;52.356;10.704;2023-01-13T02:11:34;1.40;;;0.30;;
13741;SDS011;8461;52.356;10.704;2023-01-13T02:14:19;0.57;;;0.30;;
13741;SDS011;8461;52.356;10.704;2023-01-13T02:16:51;0.60;;;0.40;;
13741;SDS011;8461;52.356;10.704;2023-01-13T02:25:20;0.20;;;0.20;;
13741;SDS011;8461;52.356;10.704;2023-01-13T02:33:08;1.17;;;0.30;;
13741;SDS011;8461;52.356;10.704;2023-01-13T02:35:56;0.43;;;0.43;;
13741;SDS011;8461;52.356;10.704;2023-01-13T02:38:49;0.70;;;0.30;;
13741;SDS011;8461;52.356;10.704;2023-01-13T02:41:28;0.83;;;0.30;;
13741;SDS011;8461;52.356;10.704;2023-01-13T02:44:19;1.27;;;0.30;;
13741;SDS011;8461;52.356;10.704;2023-01-13T02:46:51;0.40;;;0.33;;
13741;SDS011;8461;52.356;10.704;2023-01-13T02:49:26;2.03;;;0.40;;
13741;SDS011;8461;52.356;10.704;2023-01-13T02:51:54;0.30;;;0.30;;
13741;SDS011;8461;52.356;10.704;2023-01-13T02:54:26;1.43;;;0.30;;
13741;SDS011;8461;52.356;10.704;2023-01-13T02:56:54;1.30;;;0.30;;
13741;SDS011;8461;52.356;10.704;2023-01-13T02:59:21;0.63;;;0.27;;
13741;SDS011;8461;52.356;10.704;2023-01-13T03:01:50;0.20;;;0.20;;
13741;SDS011;8461;52.356;10.704;2023-01-13T03:07:12;1.73;;;0.30;;
13741;SDS011;8461;52.356;10.704;2023-01-13T03:10:10;0.30;;;0.23;;
13741;SDS011;8461;52.356;10.704;2023-01-13T03:18:26;0.73;;;0.40;;
13741;SDS011;8461;52.356;10.704;2023-01-13T03:21:17;1.67;;;0.40;;
13741;SDS011;8461;52.356;10.704;2023-01-13T03:24:16;3.07;;;0.40;;
13741;SDS011;8461;52.356;10.704;2023-01-13T03:27:07;2.33;;;1.20;;
13741;SDS011;8461;52.356;10.704;2023-01-13T03:30:02;0.60;;;0.30;;
13741;SDS011;8461;52.356;10.704;2023-01-13T03:32:34;2.03;;;0.37;;
13741;SDS011;8461;52.356;10.704;2023-01-13T03:35:06;1.80;;;0.40;;
13741;SDS011;8461;52.356;10.704;2023-01-13T03:37:38;0.40;;;0.20;;
13741;SDS011;8461;52.356;10.704;2023-01-13T03:40:09;1.60;;;0.20;;
13741;SDS011;8461;52.356;10.704;2023-01-13T03:42:36;1.10;;;0.27;;
13741;SDS011;8461;52.356;10.704;2023-01-13T03:45:26;0.40;;;0.20;;
13741;SDS011;8461;52.356;10.704;2023-01-13T03:47:56;1.77;;;0.40;;
13741;SDS011;8461;52.356;10.704;2023-01-13T03:50:31;0.27;;;0.23;;
13741;SDS011;8461;52.356;10.704;2023-01-13T03:53:09;1.13;;;0.27;;
13741;SDS011;8461;52.356;10.704;2023-01-13T03:55:40;0.77;;;0.37;;
13741;SDS011;8461;52.356;10.704;2023-01-13T03:58:26;0.53;;;0.30;;
13741;SDS011;8461;52.356;10.704;2023-01-13T04:00:57;1.60;;;0.40;;
13741;SDS011;8461;52.356;10.704;2023-01-13T04:03:34;0.63;;;0.30;;
13741;SDS011;8461;52.356;10.704;2023-01-13T04:06:15;0.60;;;0.37;;
13741;SDS011;8461;52.356;10.704;2023-01-13T04:08:54;1.17;;;0.50;;
13741;SDS011;8461;52.356;10.704;2023-01-13T04:11:41;1.60;;;0.37;;
13741;SDS011;8461;52.356;10.704;2023-01-13T04:14:13;0.77;;;0.40;;
13741;SDS011;8461;52.356;10.704;2023-01-13T04:16:41;1.33;;;0.60;;
13741;SDS011;8461;52.356;10.704;2023-01-13T04:19:07;1.57;;;0.43;;
13741;SDS011;8461;52.356;10.704;2023-01-13T04:21:32;2.07;;;1.57;;
13741;SDS011;8461;52.356;10.704;2023-01-13T04:23:59;1.47;;;0.53;;
13741;SDS011;8461;52.356;10.704;2023-01-13T04:26:25;1.87;;;0.50;;
13741;SDS011;8461;52.356;10.704;2023-01-13T04:28:50;3.93;;;0.60;;
13741;SDS011;8461;52.356;10.704;2023-01-13T04:31:18;2.93;;;0.43;;
13741;SDS011;8461;52.356;10.704;2023-01-13T04:33:44;1.53;;;0.60;;
13741;SDS011;8461;52.356;10.704;2023-01-13T04:36:09;1.40;;;0.53;;
13741;SDS011;8461;52.356;10.704;2023-01-13T04:38:35;2.03;;;0.70;;
13741;SDS011;8461;52.356;10.704;2023-01-13T04:41:00;1.63;;;0.30;;
13741;SDS011;8461;52.356;10.704;2023-01-13T04:43:26;1.63;;;0.60;;
13741;SDS011;8461;52.356;10.704;2023-01-13T04:45:52;2.13;;;0.60;;
13741;SDS011;8461;52.356;10.704;2023-01-13T04:48:17;1.77;;;0.50;;
13741;SDS011;8461;52.356;10.704;2023-01-13T04:50:43;1.33;;;0.57;;
13741;SDS011;8461;52.356;10.704;2023-01-13T04:53:08;4.40;;;0.70;;
13741;SDS011;8461;52.356;10.704;2023-01-13T04:55:34;2.03;;;0.50;;
13741;SDS011;8461;52.356;10.704;2023-01-13T04:58:00;2.60;;;0.60;;
13741;SDS011;8461;52.356;10.704;2023-01-13T05:00:30;2.30;;;1.20;;
13741;SDS011;8461;52.356;10.704;2023-01-13T05:02:56;4.53;;;1.10;;
13741;SDS011;8461;52.356;10.704;2023-01-13T05:05:22;2.20;;;0.60;;
13741;SDS011;8461;52.356;10.704;2023-01-13T05:07:47;1.60;;;0.60;;
13741;SDS011;8461;52.356;10.704;2023-01-13T05:10:13;3.23;;;0.73;;
13741;SDS011;8461;52.356;10.704;2023-01-13T05:12:38;3.20;;;0.93;;
13741;SDS011;8461;52.356;10.704;2023-01-13T05:15:22;3.00;;;1.07;;
13741;SDS011;8461;52.356;10.704;2023-01-13T05:18:06;4.33;;;1.00;;
13741;SDS011;8461;52.356;10.704;2023-01-13T05:20:32;4.83;;;1.00;;
13741;SDS011;8461;52.356;10.704;2023-01-13T05:22:58;2.03;;;0.80;;
13741;SDS011;8461;52.356;10.704;2023-01-13T05:25:42;3.97;;;1.10;;
13741;SDS011;8461;52.356;10.704;2023-01-13T05:28:07;6.03;;;1.27;;
13741;SDS011;8461;52.356;10.704;2023-01-13T05:30:40;4.03;;;0.90;;
13741;SDS011;8461;52.356;10.704;2023-01-13T05:33:10;2.70;;;1.07;;
13741;SDS011;8461;52.356;10.704;2023-01-13T05:35:37;7.40;;;1.60;;
13741;SDS011;8461;52.356;10.704;2023-01-13T05:38:03;6.73;;;1.10;;
13741;SDS011;8461;52.356;10.704;2023-01-13T05:40:29;1.93;;;1.00;;
13741;SDS011;8461;52.356;10.704;2023-01-13T05:43:24;3.27;;;1.23;;
13741;SDS011;8461;52.356;10.704;2023-01-13T05:46:03;3.17;;;1.20;;
13741;SDS011;8461;52.356;10.704;2023-01-13T05:48:38;3.10;;;0.90;;
13741;SDS011;8461;52.356;10.704;2023-01-13T05:51:06;3.47;;;0.90;;
13741;SDS011;8461;52.356;10.704;2023-01-13T05:53:33;3.67;;;0.63;;
13741;SDS011;8461;52.356;10.704;2023-01-13T05:56:02;3.03;;;0.73;;
13741;SDS011;8461;52.356;10.704;2023-01-13T05:58:28;8.53;;;0.83;;
13741;SDS011;8461;52.356;10.704;2023-01-13T06:01:04;2.50;;;0.80;;
13741;SDS011;8461;52.356;10.704;2023-01-13T06:03:31;2.00;;;0.70;;
13741;SDS011;8461;52.356;10.704;2023-01-13T06:05:57;2.10;;;0.83;;
13741;SDS011;8461;52.356;10.704;2023-01-13T06:08:25;1.97;;;0.93;;
13741;SDS011;8461;52.356;10.704;2023-01-13T06:10:51;2.70;;;0.90;;
13741;SDS011;8461;52.356;10.704;2023-01-13T06:13:17;3.97;;;1.20;;
13741;SDS011;8461;52.356;10.704;2023-01-13T06:15:42;7.37;;;1.60;;
13741;SDS011;8461;52.356;10.704;2023-01-13T06:18:08;4.37;;;1.20;;
13741;SDS011;8461;52.356;10.704;2023-01-13T06:20:33;4.23;;;1.20;;
13741;SDS011;8461;52.356;10.704;2023-01-13T06:22:59;5.37;;;1.50;;
13741;SDS011;8461;52.356;10.704;2023-01-13T06:25:28;5.83;;;1.23;;
13741;SDS011;8461;52.356;10.704;2023-01-13T06:28:00;7.07;;;1.40;;
13741;SDS011;8461;52.356;10.704;2023-01-13T06:30:26;4.40;;;1.10;;
13741;SDS011;8461;52.356;10.704;2023-01-13T06:32:57;3.97;;;1.00;;
13741;SDS011;8461;52.356;10.704;2023-01-13T06:35:25;4.53;;;1.57;;
13741;SDS011;8461;52.356;10.704;2023-01-13T06:37:56;6.40;;;1.53;;
13741;SDS011;8461;52.356;10.704;2023-01-13T06:40:23;8.37;;;1.37;;
13741;SDS011;8461;52.356;10.704;2023-01-13T06:42:49;4.67;;;1.30;;
13741;SDS011;8461;52.356;10.704;2023-01-13T06:45:37;6.63;;;1.33;;
13741;SDS011;8461;52.356;10.704;2023-01-13T06:48:03;4.83;;;1.13;;
13741;SDS011;8461;52.356;10.704;2023-01-13T06:50:28;3.93;;;0.93;;
13741;SDS011;8461;52.356;10.704;2023-01-13T06:52:54;4.90;;;1.00;;
13741;SDS011;8461;52.356;10.704;2023-01-13T06:55:20;5.30;;;1.57;;
13741;SDS011;8461;52.356;10.704;2023-01-13T06:57:49;2.03;;;0.70;;
13741;SDS011;8461;52.356;10.704;2023-01-13T07:00:19;1.10;;;0.50;;
13741;SDS011;8461;52.356;10.704;2023-01-13T07:02:46;2.47;;;0.90;;
13741;SDS011;8461;52.356;10.704;2023-01-13T07:05:12;3.30;;;0.93;;
13741;SDS011;8461;52.356;10.704;2023-01-13T07:07:38;2.43;;;0.87;;
13741;SDS011;8461;52.356;10.704;2023-01-13T07:10:05;3.13;;;0.77;;
13741;SDS011;8461;52.356;10.704;2023-01-13T07:12:36;4.50;;;0.87;;
13741;SDS011;8461;52.356;10.704;2023-01-13T07:15:24;2.43;;;0.60;;
13741;SDS011;8461;52.356;10.704;2023-01-13T07:17:50;4.30;;;0.90;;
13741;SDS011;8461;52.356;10.704;2023-01-13T07:20:16;4.80;;;0.90;;
13741;SDS011;8461;52.356;10.704;2023-01-13T07:22:42;4.07;;;1.00;;
13741;SDS011;8461;52.356;10.704;2023-01-13T07:25:08;2.93;;;1.00;;
13741;SDS011;8461;52.356;10.704;2023-01-13T07:27:34;4.77;;;0.80;;
13741;SDS011;8461;52.356;10.704;2023-01-13T07:30:00;2.73;;;1.10;;
13741;SDS011;8461;52.356;10.704;2023-01-13T07:32:26;5.27;;;1.40;;
13741;SDS011;8461;52.356;10.704;2023-01-13T07:34:52;7.07;;;1.10;;
13741;SDS011;8461;52.356;10.704;2023-01-13T07:37:17;3.93;;;1.13;;
13741;SDS011;8461;52.356;10.704;2023-01-13T07:39:43;3.93;;;0.93;;
13741;SDS011;8461;52.356;10.704;2023-01-13T07:42:09;3.90;;;0.90;;
13741;SDS011;8461;52.356;10.704;2023-01-13T07:44:53;2.83;;;1.00;;
13741;SDS011;8461;52.356;10.704;2023-01-13T07:47:19;3.40;;;1.30;;
13741;SDS011;8461;52.356;10.704;2023-01-13T07:49:47;4.97;;;1.57;;
13741;SDS011;8461;52.356;10.704;2023-01-13T07:52:13;6.03;;;1.90;;
13741;SDS011;8461;52.356;10.704;2023-01-13T07:54:39;4.50;;;1.50;;
13741;SDS011;8461;52.356;10.704;2023-01-13T07:57:04;4.83;;;1.60;;
13741;SDS011;8461;52.356;10.704;2023-01-13T07:59:30;5.97;;;1.43;;
13741;SDS011;8461;52.356;10.704;2023-01-13T08:01:55;7.03;;;1.53;;
13741;SDS011;8461;52.356;10.704;2023-01-13T08:04:21;6.90;;;2.20;;
13741;SDS011;8461;52.356;10.704;2023-01-13T08:06:46;4.43;;;1.70;;
13741;SDS011;8461;52.356;10.704;2023-01-13T08:09:12;6.70;;;1.53;;
13741;SDS011;8461;52.356;10.704;2023-01-13T08:11:38;5.67;;;1.53;;
13741;SDS011;8461;52.356;10.704;2023-01-13T08:14:03;6.77;;;1.30;;
13741;SDS011;8461;52.356;10.704;2023-01-13T08:16:31;7.23;;;1.53;;
13741;SDS011;8461;52.356;10.704;2023-01-13T08:18:57;5.30;;;1.30;;
13741;SDS011;8461;52.356;10.704;2023-01-13T08:21:23;7.50;;;1.43;;
13741;SDS011;8461;52.356;10.704;2023-01-13T08:23:48;4.53;;;1.43;;
13741;SDS011;8461;52.356;10.704;2023-01-13T08:26:15;5.90;;;1.53;;
13741;SDS011;8461;52.356;10.704;2023-01-13T08:28:42;4.33;;;1.77;;
13741;SDS011;8461;52.356;10.704;2023-01-13T08:31:12;6.90;;;1.70;;
13741;SDS011;8461;52.356;10.704;2023-01-13T08:33:39;11.47;;;2.57;;
13741;SDS011;8461;52.356;10.704;2023-01-13T08:36:06;5.80;;;1.97;;
13741;SDS011;8461;52.356;10.704;2023-01-13T08:38:33;7.00;;;1.70;;
13741;SDS011;8461;52.356;10.704;2023-01-13T08:40:59;11.20;;;1.73;;
13741;SDS011;8461;52.356;10.704;2023-01-13T08:43:26;3.70;;;1.20;;
13741;SDS011;8461;52.356;10.704;2023-01-13T08:45:55;6.30;;;1.40;;
13741;SDS011;8461;52.356;10.704;2023-01-13T08:48:27;6.00;;;1.90;;
13741;SDS011;8461;52.356;10.704;2023-01-13T08:50:53;8.70;;;1.70;;
13741;SDS011;8461;52.356;10.704;2023-01-13T08:53:26;3.37;;;1.23;;
13741;SDS011;8461;52.356;10.704;2023-01-13T08:55:52;2.00;;;0.50;;
13741;SDS011;8461;52.356;10.704;2023-01-13T08:58:17;5.07;;;0.90;;
13741;SDS011;8461;52.356;10.704;2023-01-13T09:00:43;5.43;;;1.10;;
13741;SDS011;8461;52.356;10.704;2023-01-13T09:03:08;4.23;;;0.90;;
13741;SDS011;8461;52.356;10.704;2023-01-13T09:05:34;5.97;;;1.20;;
13741;SDS011;8461;52.356;10.704;2023-01-13T09:08:00;4.87;;;1.07;;
13741;SDS011;8461;52.356;10.704;2023-01-13T09:10:26;5.07;;;0.80;;
13741;SDS011;8461;52.356;10.704;2023-01-13T09:12:51;5.07;;;1.10;;
13741;SDS011;8461;52.356;10.704;2023-01-13T09:15:35;8.47;;;1.00;;
13741;SDS011;8461;52.356;10.704;2023-01-13T09:18:01;4.63;;;0.73;;
13741;SDS011;8461;52.356;10.704;2023-01-13T09:20:26;2.53;;;0.60;;
13741;SDS011;8461;52.356;10.704;2023-01-13T09:22:52;4.30;;;1.00;;
13741;SDS011;8461;52.356;10.704;2023-01-13T09:25:17;4.73;;;1.00;;
13741;SDS011;8461;52.356;10.704;2023-01-13T09:27:43;6.07;;;1.10;;
13741;SDS011;8461;52.356;10.704;2023-01-13T09:30:09;9.27;;;1.53;;
13741;SDS011;8461;52.356;10.704;2023-01-13T09:32:35;3.47;;;0.70;;
13741;SDS011;8461;52.356;10.704;2023-01-13T09:35:02;4.50;;;1.00;;
13741;SDS011;8461;52.356;10.704;2023-01-13T09:37:29;6.33;;;1.90;;
13741;SDS011;8461;52.356;10.704;2023-01-13T09:40:03;4.47;;;0.87;;
13741;SDS011;8461;52.356;10.704;2023-01-13T09:42:32;3.20;;;0.93;;
13741;SDS011;8461;52.356;10.704;2023-01-13T09:45:36;6.67;;;1.27;;
13741;SDS011;8461;52.356;10.704;2023-01-13T09:48:25;3.83;;;0.87;;
13741;SDS011;8461;52.356;10.704;2023-01-13T09:51:15;2.17;;;0.97;;
13741;SDS011;8461;52.356;10.704;2023-01-13T09:53:52;4.03;;;1.10;;
13741;SDS011;8461;52.356;10.704;2023-01-13T09:56:24;4.33;;;0.90;;
13741;SDS011;8461;52.356;10.704;2023-01-13T09:58:50;3.63;;;0.90;;
13741;SDS011;8461;52.356;10.704;2023-01-13T10:01:25;6.33;;;1.37;;
13741;SDS011;8461;52.356;10.704;2023-01-13T10:04:16;3.50;;;1.40;;
13741;SDS011;8461;52.356;10.704;2023-01-13T10:06:43;6.83;;;1.30;;
13741;SDS011;8461;52.356;10.704;2023-01-13T10:09:16;3.00;;;1.13;;
13741;SDS011;8461;52.356;10.704;2023-01-13T10:11:49;7.03;;;1.10;;
13741;SDS011;8461;52.356;10.704;2023-01-13T10:14:38;4.33;;;1.60;;
13741;SDS011;8461;52.356;10.704;2023-01-13T10:20:15;4.67;;;0.87;;
13741;SDS011;8461;52.356;10.704;2023-01-13T10:28:26;6.37;;;1.27;;
13741;SDS011;8461;52.356;10.704;2023-01-13T10:30:51;1.20;;;0.57;;
13741;SDS011;8461;52.356;10.704;2023-01-13T10:33:18;5.50;;;1.50;;
13741;SDS011;8461;52.356;10.704;2023-01-13T10:35:55;5.30;;;1.00;;
13741;SDS011;8461;52.356;10.704;2023-01-13T10:41:05;4.97;;;1.10;;
13741;SDS011;8461;52.356;10.704;2023-01-13T10:43:36;1.67;;;0.83;;
13741;SDS011;8461;52.356;10.704;2023-01-13T10:46:03;2.43;;;0.87;;
13741;SDS011;8461;52.356;10.704;2023-01-13T10:48:38;7.50;;;1.40;;
13741;SDS011;8461;52.356;10.704;2023-01-13T10:53:57;5.60;;;1.20;;
13741;SDS011;8461;52.356;10.704;2023-01-13T10:56:25;3.87;;;1.00;;
13741;SDS011;8461;52.356;10.704;2023-01-13T10:59:41;2.53;;;0.83;;
13741;SDS011;8461;52.356;10.704;2023-01-13T11:02:15;8.30;;;1.53;;
13741;SDS011;8461;52.356;10.704;2023-01-13T11:04:42;5.00;;;1.10;;
13741;SDS011;8461;52.356;10.704;2023-01-13T11:07:32;4.50;;;1.80;;
13741;SDS011;8461;52.356;10.704;2023-01-13T11:12:50;3.80;;;1.00;;
13741;SDS011;8461;52.356;10.704;2023-01-13T11:16:13;2.40;;;0.97;;
13741;SDS011;8461;52.356;10.704;2023-01-13T11:21:29;3.43;;;0.70;;
13741;SDS011;8461;52.356;10.704;2023-01-13T11:32:58;5.13;;;0.93;;
13741;SDS011;8461;52.356;10.704;2023-01-13T11:35:34;4.93;;;1.10;;
13741;SDS011;8461;52.356;10.704;2023-01-13T11:40:59;7.87;;;1.43;;
13741;SDS011;8461;52.356;10.704;2023-01-13T11:43:38;3.23;;;2.03;;
13741;SDS011;8461;52.356;10.704;2023-01-13T11:46:10;3.33;;;1.13;;
13741;SDS011;8461;52.356;10.704;2023-01-13T11:48:37;1.90;;;0.53;;
13741;SDS011;8461;52.356;10.704;2023-01-13T11:51:48;6.83;;;1.63;;
13741;SDS011;8461;52.356;10.704;2023-01-13T12:10:30;12.30;;;2.63;;
13741;SDS011;8461;52.356;10.704;2023-01-13T12:18:36;1.57;;;0.70;;
13741;SDS011;8461;52.356;10.704;2023-01-13T12:24:08;3.53;;;1.10;;
13741;SDS011;8461;52.356;10.704;2023-01-13T12:27:04;8.63;;;0.93;;
13741;SDS011;8461;52.356;10.704;2023-01-13T12:29:39;4.70;;;1.83;;
13741;SDS011;8461;52.356;10.704;2023-01-13T12:32:13;5.70;;;1.40;;
13741;SDS011;8461;52.356;10.704;2023-01-13T12:35:01;7.17;;;1.10;;
13741;SDS011;8461;52.356;10.704;2023-01-13T12:38:06;6.43;;;1.27;;
13741;SDS011;8461;52.356;10.704;2023-01-13T12:43:10;3.77;;;1.50;;
13741;SDS011;8461;52.356;10.704;2023-01-13T12:51:22;4.83;;;1.63;;
13741;SDS011;8461;52.356;10.704;2023-01-13T12:53:49;5.53;;;1.20;;
13741;SDS011;8461;52.356;10.704;2023-01-13T12:56:57;3.33;;;1.17;;
13741;SDS011;8461;52.356;10.704;2023-01-13T13:01:46;11.07;;;1.33;;
13741;SDS011;8461;52.356;10.704;2023-01-13T13:04:16;7.33;;;1.50;;
13741;SDS011;8461;52.356;10.704;2023-01-13T13:06:50;10.67;;;1.33;;
13741;SDS011;8461;52.356;10.704;2023-01-13T13:09:32;7.97;;;1.63;;
13741;SDS011;8461;52.356;10.704;2023-01-13T13:15:22;6.70;;;1.07;;
13741;SDS011;8461;52.356;10.704;2023-01-13T13:20:57;10.57;;;1.10;;
13741;SDS011;8461;52.356;10.704;2023-01-13T13:36:52;3.90;;;1.07;;
13741;SDS011;8461;52.356;10.704;2023-01-13T13:39:25;6.13;;;1.20;;
13741;SDS011;8461;52.356;10.704;2023-01-13T13:42:14;3.97;;;1.00;;
13741;SDS011;8461;52.356;10.704;2023-01-13T13:45:19;4.37;;;1.73;;
13741;SDS011;8461;52.356;10.704;2023-01-13T13:50:46;6.07;;;1.70;;
13741;SDS011;8461;52.356;10.704;2023-01-13T13:53:20;5.10;;;1.30;;
13741;SDS011;8461;52.356;10.704;2023-01-13T13:55:51;4.27;;;1.37;;
13741;SDS011;8461;52.356;10.704;2023-01-13T13:58:22;3.43;;;0.93;;
13741;SDS011;8461;52.356;10.704;2023-01-13T14:00:50;3.33;;;0.97;;
13741;SDS011;8461;52.356;10.704;2023-01-13T14:03:20;6.17;;;1.40;;
13741;SDS011;8461;52.356;10.704;2023-01-13T14:06:01;9.13;;;1.90;;
13741;SDS011;8461;52.356;10.704;2023-01-13T14:08:29;6.43;;;1.30;;
13741;SDS011;8461;52.356;10.704;2023-01-13T14:10:57;5.47;;;1.00;;
13741;SDS011;8461;52.356;10.704;2023-01-13T14:13:24;3.80;;;1.37;;
13741;SDS011;8461;52.356;10.704;2023-01-13T14:16:05;5.43;;;1.20;;
13741;SDS011;8461;52.356;10.704;2023-01-13T14:18:42;5.30;;;1.40;;
13741;SDS011;8461;52.356;10.704;2023-01-13T14:21:17;7.37;;;1.80;;
13741;SDS011;8461;52.356;10.704;2023-01-13T14:23:52;9.03;;;1.97;;
13741;SDS011;8461;52.356;10.704;2023-01-13T14:26:25;8.30;;;1.50;;
13741;SDS011;8461;52.356;10.704;2023-01-13T14:28:52;8.07;;;2.00;;
13741;SDS011;8461;52.356;10.704;2023-01-13T14:31:19;5.97;;;1.67;;
13741;SDS011;8461;52.356;10.704;2023-01-13T14:33:46;3.50;;;1.30;;
13741;SDS011;8461;52.356;10.704;2023-01-13T14:41:29;9.17;;;1.33;;
13741;SDS011;8461;52.356;10.704;2023-01-13T14:44:11;4.47;;;0.97;;
13741;SDS011;8461;52.356;10.704;2023-01-13T14:46:46;10.50;;;2.03;;
13741;SDS011;8461;52.356;10.704;2023-01-13T14:49:23;4.83;;;1.63;;
13741;SDS011;8461;52.356;10.704;2023-01-13T14:52:06;7.93;;;1.67;;
13741;SDS011;8461;52.356;10.704;2023-01-13T14:54:44;8.37;;;1.73;;
13741;SDS011;8461;52.356;10.704;2023-01-13T14:57:24;5.13;;;1.40;;
13741;SDS011;8461;52.356;10.704;2023-01-13T15:00:03;7.80;;;1.87;;
13741;SDS011;8461;52.356;10.704;2023-01-13T15:02:39;3.53;;;0.93;;
13741;SDS011;8461;52.356;10.704;2023-01-13T15:07:49;7.27;;;1.50;;
13741;SDS011;8461;52.356;10.704;2023-01-13T15:10:17;7.27;;;1.93;;
13741;SDS011;8461;52.356;10.704;2023-01-13T15:12:45;3.80;;;1.37;;
13741;SDS011;8461;52.356;10.704;2023-01-13T15:15:33;4.37;;;1.37;;
13741;SDS011;8461;52.356;10.704;2023-01-13T15:18:00;6.20;;;1.57;;
13741;SDS011;8461;52.356;10.704;2023-01-13T15:20:33;4.67;;;2.03;;
13741;SDS011;8461;52.356;10.704;2023-01-13T15:22:59;6.63;;;1.67;;
13741;SDS011;8461;52.356;10.704;2023-01-13T15:25:30;8.00;;;1.53;;
13741;SDS011;8461;52.356;10.704;2023-01-13T15:27:56;4.27;;;0.73;;
13741;SDS011;8461;52.356;10.704;2023-01-13T15:30:22;3.07;;;1.03;;
13741;SDS011;8461;52.356;10.704;2023-01-13T15:32:50;5.03;;;1.30;;
13741;SDS011;8461;52.356;10.704;2023-01-13T15:35:19;5.40;;;1.60;;
13741;SDS011;8461;52.356;10.704;2023-01-13T15:37:46;4.10;;;1.20;;
13741;SDS011;8461;52.356;10.704;2023-01-13T15:40:14;4.80;;;1.10;;
13741;SDS011;8461;52.356;10.704;2023-01-13T15:42:39;6.47;;;1.23;;
13741;SDS011;8461;52.356;10.704;2023-01-13T15:45:24;4.53;;;1.00;;
13741;SDS011;8461;52.356;10.704;2023-01-13T15:48:08;4.00;;;1.17;;
13741;SDS011;8461;52.356;10.704;2023-01-13T15:50:34;6.70;;;1.40;;
13741;SDS011;8461;52.356;10.704;2023-01-13T15:53:00;8.87;;;1.60;;
13741;SDS011;8461;52.356;10.704;2023-01-13T15:55:25;4.80;;;1.23;;
13741;SDS011;8461;52.356;10.704;2023-01-13T15:57:51;5.10;;;1.57;;
13741;SDS011;8461;52.356;10.704;2023-01-13T16:00:17;7.03;;;1.33;;
13741;SDS011;8461;52.356;10.704;2023-01-13T16:02:45;2.53;;;1.00;;
13741;SDS011;8461;52.356;10.704;2023-01-13T16:05:11;4.60;;;1.17;;
13741;SDS011;8461;52.356;10.704;2023-01-13T16:07:37;5.27;;;1.40;;
13741;SDS011;8461;52.356;10.704;2023-01-13T16:10:04;4.23;;;1.30;;
13741;SDS011;8461;52.356;10.704;2023-01-13T16:12:32;3.17;;;1.00;;
13741;SDS011;8461;52.356;10.704;2023-01-13T16:14:58;7.07;;;2.50;;
13741;SDS011;8461;52.356;10.704;2023-01-13T16:17:25;3.37;;;1.30;;
13741;SDS011;8461;52.356;10.704;2023-01-13T16:19:54;4.67;;;1.10;;
13741;SDS011;8461;52.356;10.704;2023-01-13T16:22:19;2.90;;;1.00;;
13741;SDS011;8461;52.356;10.704;2023-01-13T16:24:45;4.90;;;1.83;;
13741;SDS011;8461;52.356;10.704;2023-01-13T16:27:16;3.27;;;1.13;;
13741;SDS011;8461;52.356;10.704;2023-01-13T16:29:44;19.50;;;2.20;;
13741;SDS011;8461;52.356;10.704;2023-01-13T16:32:10;4.27;;;0.97;;
13741;SDS011;8461;52.356;10.704;2023-01-13T16:34:36;5.40;;;1.57;;
13741;SDS011;8461;52.356;10.704;2023-01-13T16:37:01;1.97;;;0.90;;
13741;SDS011;8461;52.356;10.704;2023-01-13T16:39:27;5.57;;;1.00;;
13741;SDS011;8461;52.356;10.704;2023-01-13T16:41:53;3.67;;;1.10;;
13741;SDS011;8461;52.356;10.704;2023-01-13T16:44:19;3.50;;;1.17;;
13741;SDS011;8461;52.356;10.704;2023-01-13T16:46:44;5.70;;;1.40;;
13741;SDS011;8461;52.356;10.704;2023-01-13T16:49:12;4.90;;;0.97;;
13741;SDS011;8461;52.356;10.704;2023-01-13T16:51:38;2.23;;;1.27;;
13741;SDS011;8461;52.356;10.704;2023-01-13T16:54:04;3.80;;;0.70;;
13741;SDS011;8461;52.356;10.704;2023-01-13T16:56:35;4.20;;;0.97;;
13741;SDS011;8461;52.356;10.704;2023-01-13T16:59:05;2.73;;;0.80;;
13741;SDS011;8461;52.356;10.704;2023-01-13T17:01:39;3.17;;;1.57;;
13741;SDS011;8461;52.356;10.704;2023-01-13T17:04:06;2.87;;;0.87;;
13741;SDS011;8461;52.356;10.704;2023-01-13T17:06:43;4.90;;;1.40;;
13741;SDS011;8461;52.356;10.704;2023-01-13T17:09:18;5.83;;;1.40;;
13741;SDS011;8461;52.356;10.704;2023-01-13T17:11:45;5.37;;;0.80;;
13741;SDS011;8461;52.356;10.704;2023-01-13T17:14:11;4.77;;;1.23;;